createdAt,value
2022-10-18T00:01:32.538Z,63.20
2022-10-18T00:03:39.949Z,62.54
2022-10-18T00:05:51.891Z,63.11
2022-10-18T00:07:55.268Z,62.91
2022-10-18T00:10:01.174Z,63.77
2022-10-18T00:12:05.057Z,64.13
2022-10-18T00:14:07.684Z,64.52
2022-10-18T00:16:18.319Z,65.20
2022-10-18T00:18:28.061Z,64.65
2022-10-18T00:20:31.598Z,64.57
2022-10-18T00:22:40.914Z,64.95
2022-10-18T00:24:44.152Z,64.62
2022-10-18T00:26:52.181Z,64.87
2022-10-18T00:29:02.623Z,65.01
2022-10-18T00:31:16.424Z,64.25
2022-10-18T00:33:25.620Z,65.07
2022-10-18T00:35:27.718Z,64.61
2022-10-18T00:37:30.104Z,65.19
2022-10-18T00:39:35.262Z,65.73
2022-10-18T00:41:38.317Z,65.98
2022-10-18T00:44:03.536Z,66.07
2022-10-18T00:46:05.466Z,66.01
2022-10-18T00:48:09.840Z,66.16
2022-10-18T00:50:13.679Z,66.31
2022-10-18T00:52:22.550Z,65.81
2022-10-18T00:54:30.126Z,65.51
2022-10-18T00:56:34.406Z,65.52
2022-10-18T00:58:36.594Z,65.29
2022-10-18T01:00:45.615Z,65.52
2022-10-18T01:02:47.952Z,65.26
2022-10-18T01:04:55.555Z,65.47
2022-10-18T01:07:19.251Z,65.59
2022-10-18T01:09:36.916Z,65.41
2022-10-18T01:12:01.506Z,65.26
2022-10-18T01:14:28.929Z,65.19
2022-10-18T01:17:03.074Z,64.58
2022-10-18T01:19:14.588Z,64.71
2022-10-18T01:21:28.512Z,65.02
2022-10-18T01:23:57.255Z,64.22
2022-10-18T01:26:19.509Z,64.29
2022-10-18T01:28:54.413Z,65.13
2022-10-18T01:31:08.507Z,64.79
2022-10-18T01:33:27.874Z,64.52
2022-10-18T01:35:41.123Z,63.84
2022-10-18T01:37:48.598Z,63.84
2022-10-18T01:39:56.740Z,63.61
2022-10-18T01:42:02.091Z,64.12
2022-10-18T01:44:09.753Z,63.82
2022-10-18T01:46:15.351Z,63.28
2022-10-18T01:48:20.498Z,63.44
2022-10-18T01:50:35.352Z,63.29
2022-10-18T01:52:48.264Z,63.37
2022-10-18T01:54:56.478Z,63.46
2022-10-18T01:57:33.322Z,63.06
2022-10-18T02:00:04.297Z,62.64
2022-10-18T02:02:24.617Z,62.14
2022-10-18T02:05:01.577Z,62.49
2022-10-18T02:07:16.822Z,62.33
2022-10-18T02:09:24.578Z,62.85
2022-10-18T02:11:29.693Z,62.36
2022-10-18T02:13:58.043Z,62.35
2022-10-18T02:16:05.054Z,62.39
2022-10-18T02:18:11.779Z,62.86
2022-10-18T02:20:18.003Z,63.24
2022-10-18T02:22:28.292Z,62.97
2022-10-18T02:24:37.069Z,62.50
2022-10-18T02:26:41.069Z,62.81
2022-10-18T02:28:44.007Z,62.85
2022-10-18T02:31:27.309Z,62.48
2022-10-18T02:33:37.022Z,62.58
2022-10-18T02:35:50.181Z,62.93
2022-10-18T02:37:55.462Z,62.94
2022-10-18T02:39:57.689Z,62.51
2022-10-18T02:42:00.123Z,62.64
2022-10-18T02:44:02.072Z,62.75
2022-10-18T02:46:04.372Z,62.61
2022-10-18T02:48:11.412Z,62.83
2022-10-18T02:50:16.439Z,62.80
2022-10-18T02:52:18.250Z,62.69
2022-10-18T02:54:25.392Z,62.66
2022-10-18T02:56:27.294Z,62.68
2022-10-18T02:58:29.518Z,62.92
2022-10-18T03:00:31.461Z,62.38
2022-10-18T03:02:39.138Z,62.88
2022-10-18T03:04:41.099Z,63.37
2022-10-18T03:06:43.002Z,62.70
2022-10-18T03:08:45.109Z,62.70
2022-10-18T03:10:47.410Z,62.87
2022-10-18T03:12:50.218Z,63.06
2022-10-18T03:14:53.049Z,62.71
2022-10-18T03:16:54.973Z,62.51
2022-10-18T03:18:57.909Z,62.57
2022-10-18T03:20:59.856Z,62.71
2022-10-18T03:23:03.555Z,62.44
2022-10-18T03:25:05.789Z,61.98
2022-10-18T03:27:07.681Z,62.51
2022-10-18T03:29:11.748Z,62.01
2022-10-18T03:31:13.821Z,61.71
2022-10-18T03:33:15.675Z,62.41
2022-10-18T03:35:17.552Z,62.05
2022-10-18T03:37:19.378Z,62.06
2022-10-18T03:39:22.339Z,62.56
2022-10-18T03:41:26.231Z,62.21
2022-10-18T03:43:28.138Z,62.34
2022-10-18T03:45:41.274Z,62.52
2022-10-18T03:47:43.080Z,62.93
2022-10-18T03:49:46.005Z,62.86
2022-10-18T03:51:49.828Z,62.55
2022-10-18T03:53:51.749Z,63.38
2022-10-18T03:55:56.919Z,63.05
2022-10-18T03:58:00.865Z,63.11
2022-10-18T04:00:10.217Z,63.77
2022-10-18T04:02:17.848Z,63.36
2022-10-18T04:04:25.893Z,63.46
2022-10-18T04:06:28.809Z,63.58
2022-10-18T04:08:30.767Z,64.05
2022-10-18T04:10:33.777Z,63.44
2022-10-18T04:12:35.731Z,63.85
2022-10-18T04:14:38.772Z,63.40
2022-10-18T04:16:40.722Z,63.28
2022-10-18T04:18:43.124Z,63.69
2022-10-18T04:20:45.055Z,63.69
2022-10-18T04:22:48.386Z,63.52
2022-10-18T04:24:53.488Z,63.26
2022-10-18T04:26:55.405Z,63.26
2022-10-18T04:28:58.357Z,63.23
2022-10-18T04:31:00.334Z,63.08
2022-10-18T04:33:02.258Z,63.10
2022-10-18T04:35:05.164Z,63.56
2022-10-18T04:37:07.053Z,63.25
2022-10-18T04:39:08.989Z,63.29
2022-10-18T04:41:11.885Z,63.35
2022-10-18T04:43:13.979Z,62.46
2022-10-18T04:45:17.050Z,63.50
2022-10-18T04:47:20.271Z,63.59
2022-10-18T04:49:23.258Z,63.85
2022-10-18T04:51:28.717Z,63.59
2022-10-18T04:53:31.674Z,63.50
2022-10-18T04:55:33.596Z,63.24
2022-10-18T04:57:36.526Z,63.49
2022-10-18T04:59:38.626Z,63.55
2022-10-18T05:01:42.630Z,64.10
2022-10-18T05:03:45.596Z,64.16
2022-10-18T05:06:01.244Z,63.88
2022-10-18T05:08:05.775Z,63.44
2022-10-18T05:10:09.229Z,63.71
2022-10-18T05:12:13.222Z,63.96
2022-10-18T05:14:16.292Z,64.17
2022-10-18T05:16:24.146Z,63.82
2022-10-18T05:18:28.245Z,63.54
2022-10-18T05:20:30.331Z,64.65
2022-10-18T05:22:32.500Z,64.14
2022-10-18T05:24:34.750Z,64.08
2022-10-18T05:26:42.793Z,64.24
2022-10-18T05:28:46.720Z,63.86
2022-10-18T05:30:49.670Z,63.53
2022-10-18T05:32:53.750Z,64.19
2022-10-18T05:34:55.980Z,63.76
2022-10-18T05:36:58.794Z,63.97
2022-10-18T05:39:05.518Z,63.86
2022-10-18T05:41:07.671Z,63.82
2022-10-18T05:43:10.650Z,63.83
2022-10-18T05:45:17.480Z,64.26
2022-10-18T05:47:19.360Z,63.44
2022-10-18T05:49:21.410Z,63.50
2022-10-18T05:51:23.352Z,64.27
2022-10-18T05:53:36.229Z,63.39
2022-10-18T05:55:43.336Z,63.72
2022-10-18T05:57:50.577Z,63.74
2022-10-18T05:59:54.446Z,63.19
2022-10-18T06:01:58.506Z,63.28
2022-10-18T06:04:01.714Z,62.69
2022-10-18T06:06:19.440Z,63.31
2022-10-18T06:08:21.682Z,62.68
2022-10-18T06:10:26.190Z,62.79
2022-10-18T06:12:28.184Z,62.38
2022-10-18T06:14:30.116Z,62.78
2022-10-18T06:16:34.196Z,63.07
2022-10-18T06:18:36.720Z,62.69
2022-10-18T06:20:59.135Z,62.31
2022-10-18T06:23:19.056Z,62.42
2022-10-18T06:25:22.040Z,62.68
2022-10-18T06:27:38.042Z,61.86
2022-10-18T06:29:41.705Z,62.39
2022-10-18T06:31:53.778Z,62.23
2022-10-18T06:34:05.542Z,62.35
2022-10-18T06:36:15.623Z,62.15
2022-10-18T06:38:23.867Z,62.03
2022-10-18T06:40:31.124Z,62.62
2022-10-18T06:42:35.282Z,62.28
2022-10-18T06:44:38.598Z,62.32
2022-10-18T06:46:41.941Z,62.01
2022-10-18T06:48:47.916Z,62.21
2022-10-18T06:51:00.703Z,62.49
2022-10-18T06:53:04.328Z,62.06
2022-10-18T06:55:09.254Z,62.07
2022-10-18T06:57:11.121Z,61.48
2022-10-18T06:59:13.045Z,61.72
2022-10-18T07:01:17.129Z,61.32
2022-10-18T07:03:19.022Z,61.11
2022-10-18T07:05:20.928Z,60.40
2022-10-18T07:07:22.961Z,60.79
2022-10-18T07:09:32.616Z,60.84
2022-10-18T07:11:36.651Z,60.15
2022-10-18T07:13:38.537Z,60.33
2022-10-18T07:15:42.598Z,60.03
2022-10-18T07:17:49.363Z,59.83
2022-10-18T07:19:56.724Z,60.07
2022-10-18T07:22:06.542Z,60.08
2022-10-18T07:24:08.533Z,60.91
2022-10-18T07:26:42.787Z,60.11
2022-10-18T07:28:51.151Z,59.89
2022-10-18T07:30:54.946Z,60.33
2022-10-18T07:32:56.863Z,59.72
2022-10-18T07:35:06.290Z,59.54
2022-10-18T07:37:08.343Z,59.45
2022-10-18T07:39:17.398Z,58.75
2022-10-18T07:41:21.902Z,59.36
2022-10-18T07:43:47.183Z,59.30
2022-10-18T07:45:55.569Z,58.45
2022-10-18T07:48:00.920Z,57.31
2022-10-18T07:50:02.956Z,57.64
2022-10-18T07:52:05.127Z,57.31
2022-10-18T07:54:09.546Z,57.75
2022-10-18T07:56:21.159Z,57.88
2022-10-18T07:58:23.435Z,57.27
2022-10-18T08:00:25.569Z,57.35
2022-10-18T08:02:27.606Z,57.11
2022-10-18T08:04:29.616Z,57.04
2022-10-18T08:06:31.723Z,58.08
2022-10-18T08:08:33.619Z,57.93
2022-10-18T08:10:36.478Z,58.21
2022-10-18T08:12:39.496Z,57.69
2022-10-18T08:14:41.588Z,57.33
2022-10-18T08:16:43.786Z,57.72
2022-10-18T08:18:47.529Z,57.27
2022-10-18T08:20:49.478Z,57.77
2022-10-18T08:22:55.445Z,56.96
2022-10-18T08:24:59.716Z,57.48
2022-10-18T08:27:01.734Z,56.73
2022-10-18T08:29:20.975Z,56.91
2022-10-18T08:31:23.930Z,56.06
2022-10-18T08:33:25.846Z,54.82
2022-10-18T08:35:27.955Z,54.83
2022-10-18T08:37:30.346Z,53.70
2022-10-18T08:39:32.576Z,53.68
2022-10-18T08:41:37.339Z,53.49
2022-10-18T08:43:47.428Z,54.02
2022-10-18T08:45:54.514Z,53.19
2022-10-18T08:47:58.109Z,52.84
2022-10-18T08:50:04.694Z,52.50
2022-10-18T08:52:19.468Z,53.27
2022-10-18T08:54:37.901Z,52.88
2022-10-18T08:56:43.332Z,53.23
2022-10-18T08:58:45.404Z,52.79
2022-10-18T09:01:26.072Z,52.56
2022-10-18T09:03:33.729Z,53.60
2022-10-18T09:06:10.488Z,53.31
2022-10-18T09:08:39.990Z,53.12
2022-10-18T09:11:07.970Z,52.37
2022-10-18T09:13:57.277Z,53.66
2022-10-18T09:16:01.358Z,53.52
2022-10-18T09:18:15.031Z,52.84
2022-10-18T09:20:22.921Z,53.53
2022-10-18T09:22:53.230Z,53.36
2022-10-18T09:25:15.109Z,52.90
2022-10-18T09:27:20.468Z,53.69
2022-10-18T09:29:48.879Z,53.10
2022-10-18T09:32:01.585Z,53.56
2022-10-18T09:34:11.931Z,53.40
2022-10-18T09:36:21.998Z,54.34
2022-10-18T09:38:31.171Z,54.84
2022-10-18T09:40:39.125Z,54.43
2022-10-18T09:43:04.430Z,54.03
2022-10-18T09:45:24.528Z,54.33
2022-10-18T09:47:39.620Z,52.25
2022-10-18T09:50:03.058Z,52.83
2022-10-18T09:52:14.128Z,53.90
2022-10-18T09:54:36.167Z,52.79
2022-10-18T09:57:14.173Z,52.12
2022-10-18T09:59:39.198Z,52.77
2022-10-18T10:01:41.204Z,52.83
2022-10-18T10:03:43.286Z,52.88
2022-10-18T10:05:45.428Z,50.69
2022-10-18T10:07:48.996Z,51.38
2022-10-18T10:10:08.535Z,51.78
2022-10-18T10:12:35.300Z,52.07
2022-10-18T10:14:44.288Z,52.45
2022-10-18T10:16:58.548Z,51.70
2022-10-18T10:19:00.510Z,53.07
2022-10-18T10:21:06.120Z,51.94
2022-10-18T10:23:19.791Z,53.11
2022-10-18T10:25:29.264Z,52.93
2022-10-18T10:27:41.186Z,52.52
2022-10-18T10:29:51.678Z,52.58
2022-10-18T10:32:04.469Z,54.70
2022-10-18T10:34:15.087Z,55.13
2022-10-18T10:36:19.683Z,54.54
2022-10-18T10:38:32.544Z,55.56
2022-10-18T10:40:40.639Z,55.22
2022-10-18T10:43:08.850Z,54.24
2022-10-18T10:45:23.937Z,55.32
2022-10-18T10:47:32.794Z,54.74
2022-10-18T10:49:46.378Z,55.20
2022-10-18T10:52:08.247Z,55.33
2022-10-18T10:54:17.305Z,54.01
2022-10-18T10:56:28.083Z,54.08
2022-10-18T10:58:36.266Z,54.13
2022-10-18T11:00:46.141Z,53.96
2022-10-18T11:02:59.291Z,54.60
2022-10-18T11:05:28.798Z,55.53
2022-10-18T11:07:39.816Z,56.18
2022-10-18T11:09:55.034Z,55.65
2022-10-18T11:12:13.870Z,55.29
2022-10-18T11:14:27.226Z,56.61
2022-10-18T11:16:55.336Z,56.45
2022-10-18T11:18:59.049Z,55.44
2022-10-18T11:21:08.279Z,56.74
2022-10-18T11:23:16.208Z,57.34
2022-10-18T11:25:18.424Z,57.18
2022-10-18T11:27:29.461Z,57.29
2022-10-18T11:29:37.141Z,57.45
2022-10-18T11:31:55.432Z,58.09
2022-10-18T11:34:40.392Z,57.44
2022-10-18T11:37:31.065Z,57.98
2022-10-18T11:39:36.629Z,58.38
2022-10-18T11:41:44.527Z,59.02
2022-10-18T11:44:02.782Z,60.05
2022-10-18T11:46:22.344Z,58.96
2022-10-18T11:48:58.056Z,58.95
2022-10-18T11:51:56.311Z,57.98
2022-10-18T11:54:31.129Z,57.83
2022-10-18T11:56:48.317Z,57.97
2022-10-18T11:59:14.358Z,58.00
2022-10-18T12:01:35.937Z,58.72
2022-10-18T12:03:58.919Z,58.72
2022-10-18T12:06:06.785Z,58.22
2022-10-18T12:08:34.796Z,58.93
2022-10-18T12:10:52.521Z,59.01
2022-10-18T12:13:02.367Z,59.08
2022-10-18T12:15:14.614Z,58.78
2022-10-18T12:17:42.862Z,58.42
2022-10-18T12:19:52.286Z,58.26
2022-10-18T12:21:57.814Z,58.09
2022-10-18T12:24:20.290Z,58.55
2022-10-18T12:26:23.104Z,58.66
2022-10-18T12:28:34.073Z,58.99
2022-10-18T12:31:08.256Z,58.88
2022-10-18T12:33:27.782Z,59.14
2022-10-18T12:35:35.426Z,58.95
2022-10-18T12:37:54.535Z,58.31
2022-10-18T12:40:15.771Z,58.57
2022-10-18T12:42:31.496Z,58.78
2022-10-18T12:44:35.388Z,59.49
2022-10-18T12:47:05.604Z,59.20
2022-10-18T12:49:13.010Z,59.76
2022-10-18T12:51:20.744Z,59.27
2022-10-18T12:53:28.199Z,59.50
2022-10-18T12:55:33.878Z,59.73
2022-10-18T12:57:54.137Z,60.13
2022-10-18T12:59:56.149Z,60.58
2022-10-18T13:02:00.641Z,60.62
2022-10-18T13:04:02.793Z,60.57
2022-10-18T13:06:06.789Z,61.19
2022-10-18T13:08:27.863Z,61.35
2022-10-18T13:10:35.474Z,60.89
2022-10-18T13:13:13.229Z,61.25
2022-10-18T13:15:37.780Z,61.77
2022-10-18T13:17:42.800Z,61.48
2022-10-18T13:20:25.564Z,60.96
2022-10-18T13:22:44.113Z,61.73
2022-10-18T13:25:25.008Z,61.88
2022-10-18T13:27:45.612Z,61.98
2022-10-18T13:30:00.702Z,61.70
2022-10-18T13:32:07.834Z,61.46
2022-10-18T13:34:23.058Z,61.75
2022-10-18T13:36:26.504Z,62.77
2022-10-18T13:38:46.684Z,62.34
2022-10-18T13:41:05.233Z,63.25
2022-10-18T13:43:48.933Z,63.29
2022-10-18T13:45:56.162Z,63.23
2022-10-18T13:48:27.868Z,63.48
2022-10-18T13:50:38.467Z,63.18
2022-10-18T13:53:15.625Z,63.75
2022-10-18T13:55:39.599Z,63.37
2022-10-18T13:57:45.944Z,63.08
2022-10-18T14:00:24.406Z,62.78
2022-10-18T14:03:31.996Z,64.46
2022-10-18T14:06:06.715Z,63.18
2022-10-18T14:08:17.701Z,63.42
2022-10-18T14:11:04.188Z,64.34
2022-10-18T14:13:14.511Z,63.57
2022-10-18T14:15:24.992Z,63.81
2022-10-18T14:17:49.587Z,63.98
2022-10-18T14:19:58.650Z,64.05
2022-10-18T14:22:11.912Z,65.27
2022-10-18T14:24:22.578Z,64.54
2022-10-18T14:26:28.853Z,63.88
2022-10-18T14:28:58.491Z,64.67
2022-10-18T14:31:12.100Z,65.40
2022-10-18T14:33:46.052Z,65.07
2022-10-18T14:36:00.066Z,64.67
2022-10-18T14:38:03.977Z,65.12
2022-10-18T14:40:06.194Z,65.50
2022-10-18T14:42:21.328Z,66.21
2022-10-18T14:44:28.998Z,65.75
2022-10-18T14:46:33.070Z,65.89
2022-10-18T14:48:35.026Z,66.38
2022-10-18T14:50:38.095Z,66.71
2022-10-18T14:52:41.102Z,67.67
2022-10-18T14:54:48.929Z,67.61
2022-10-18T14:56:51.969Z,67.68
2022-10-18T14:58:57.488Z,68.39
2022-10-18T15:00:59.721Z,68.66
2022-10-18T15:03:04.326Z,68.65
2022-10-18T15:05:25.181Z,69.01
2022-10-18T15:07:31.458Z,69.72
2022-10-18T15:09:36.744Z,69.76
2022-10-18T15:11:41.810Z,69.47
2022-10-18T15:13:54.338Z,69.93
2022-10-18T15:15:56.826Z,70.61
2022-10-18T15:17:59.940Z,70.89
2022-10-18T15:20:26.427Z,71.17
2022-10-18T15:22:32.080Z,70.94
2022-10-18T15:24:37.936Z,72.13
2022-10-18T15:26:46.828Z,71.57
2022-10-18T15:28:54.046Z,71.90
2022-10-18T15:31:02.236Z,72.00
2022-10-18T15:33:09.986Z,72.26
2022-10-18T15:35:23.484Z,72.55
2022-10-18T15:37:30.815Z,73.34
2022-10-18T15:39:42.814Z,73.72
2022-10-18T15:42:02.222Z,74.25
2022-10-18T15:44:23.870Z,75.18
2022-10-18T15:46:32.394Z,75.81
2022-10-18T15:48:39.878Z,75.88
2022-10-18T15:50:48.179Z,76.14
2022-10-18T15:52:50.116Z,76.33
2022-10-18T15:54:55.250Z,78.19
2022-10-18T15:56:58.552Z,78.75
2022-10-18T15:59:12.808Z,78.87
2022-10-18T16:01:20.522Z,80.10
2022-10-18T16:03:24.364Z,80.47
2022-10-18T16:05:27.432Z,80.13
2022-10-18T16:07:29.385Z,80.42
2022-10-18T16:09:31.328Z,80.59
2022-10-18T16:11:33.348Z,80.83
2022-10-18T16:13:35.283Z,80.49
2022-10-18T16:15:37.203Z,80.79
2022-10-18T16:17:39.161Z,80.98
2022-10-18T16:19:41.073Z,81.03
2022-10-18T16:21:42.974Z,81.81
2022-10-18T16:23:45.086Z,81.12
2022-10-18T16:25:47.185Z,81.33
2022-10-18T16:27:51.080Z,81.23
2022-10-18T16:29:52.934Z,81.33
2022-10-18T16:31:58.347Z,81.80
2022-10-18T16:34:00.902Z,81.50
2022-10-18T16:36:04.987Z,81.79
2022-10-18T16:38:24.648Z,81.63
2022-10-18T16:40:26.920Z,82.14
2022-10-18T16:42:28.855Z,82.56
2022-10-18T16:44:30.786Z,82.69
2022-10-18T16:46:34.868Z,82.97
2022-10-18T16:48:36.783Z,82.80
2022-10-18T16:50:38.677Z,83.12
2022-10-18T16:52:40.596Z,82.86
2022-10-18T16:54:42.582Z,82.90
2022-10-18T16:56:44.840Z,82.97
2022-10-18T16:58:47.074Z,83.00
2022-10-18T17:00:49.864Z,82.91
2022-10-18T17:02:52.060Z,83.12
2022-10-18T17:04:53.979Z,83.33
2022-10-18T17:06:57.746Z,83.47
2022-10-18T17:09:00.254Z,83.08
2022-10-18T17:11:02.580Z,83.59
2022-10-18T17:13:06.797Z,83.54
2022-10-18T17:15:09.505Z,83.47
2022-10-18T17:17:13.515Z,83.20
2022-10-18T17:19:16.071Z,82.83
2022-10-18T17:21:19.992Z,82.21
2022-10-18T17:23:22.467Z,81.93
2022-10-18T17:25:24.999Z,82.06
2022-10-18T17:27:27.650Z,81.47
2022-10-18T17:29:29.978Z,81.18
2022-10-18T17:31:33.290Z,81.37
2022-10-18T17:33:36.114Z,81.84
2022-10-18T17:35:39.491Z,81.09
2022-10-18T17:37:45.313Z,81.01
2022-10-18T17:39:48.538Z,80.59
2022-10-18T17:41:51.365Z,80.61
2022-10-18T17:43:54.011Z,80.87
2022-10-18T17:45:56.902Z,81.22
2022-10-18T17:47:59.150Z,80.80
2022-10-18T17:50:01.227Z,81.08
2022-10-18T17:52:06.902Z,81.86
2022-10-18T17:54:10.146Z,82.01
2022-10-18T17:56:13.729Z,81.78
2022-10-18T17:58:15.760Z,82.14
2022-10-18T18:00:18.664Z,81.99
2022-10-18T18:02:21.379Z,81.99
2022-10-18T18:04:24.648Z,81.90
2022-10-18T18:06:33.979Z,81.89
2022-10-18T18:08:38.025Z,82.14
2022-10-18T18:10:42.019Z,82.17
2022-10-18T18:12:46.040Z,82.32
2022-10-18T18:14:48.506Z,82.65
2022-10-18T18:16:51.579Z,82.38
2022-10-18T18:18:56.493Z,82.70
2022-10-18T18:20:58.896Z,82.65
2022-10-18T18:23:03.418Z,82.73
2022-10-18T18:25:06.326Z,82.54
2022-10-18T18:27:08.726Z,82.65
2022-10-18T18:29:13.371Z,82.70
2022-10-18T18:31:24.209Z,83.03
2022-10-18T18:33:26.843Z,83.06
2022-10-18T18:35:30.734Z,83.13
2022-10-18T18:37:33.290Z,83.07
2022-10-18T18:39:36.788Z,82.82
2022-10-18T18:41:39.057Z,83.34
2022-10-18T18:43:47.390Z,83.42
2022-10-18T18:45:53.807Z,83.33
2022-10-18T18:47:56.243Z,83.12
2022-10-18T18:49:58.556Z,83.27
2022-10-18T18:52:00.996Z,83.29
2022-10-18T18:54:03.969Z,83.61
2022-10-18T18:56:11.484Z,83.28
2022-10-18T18:58:14.490Z,83.50
2022-10-18T19:00:18.204Z,83.47
2022-10-18T19:02:20.701Z,83.59
2022-10-18T19:04:23.060Z,83.46
2022-10-18T19:06:32.018Z,83.62
2022-10-18T19:08:39.178Z,83.54
2022-10-18T19:10:42.047Z,83.64
2022-10-18T19:12:43.977Z,83.30
2022-10-18T19:14:47.229Z,83.57
2022-10-18T19:17:01.985Z,83.55
2022-10-18T19:19:19.980Z,83.55
2022-10-18T19:21:23.992Z,83.79
2022-10-18T19:25:30.743Z,83.48
2022-10-18T19:27:35.909Z,83.45
2022-10-18T19:29:43.076Z,83.75
2022-10-18T19:31:46.432Z,83.91
2022-10-18T19:33:59.338Z,83.87
2022-10-18T19:36:02.634Z,83.94
2022-10-18T19:38:07.649Z,83.78
2022-10-18T19:40:18.210Z,83.95
2022-10-18T19:42:26.097Z,84.30
2022-10-18T19:44:32.917Z,84.05
2022-10-18T19:46:41.114Z,84.06
2022-10-18T19:48:43.580Z,84.39
2022-10-18T19:50:48.277Z,83.86
2022-10-18T19:52:50.583Z,83.87
2022-10-18T19:54:56.579Z,84.52
2022-10-18T19:56:58.745Z,84.18
2022-10-18T19:59:00.844Z,84.35
2022-10-18T20:01:04.824Z,84.35
2022-10-18T20:03:07.958Z,84.30
2022-10-18T20:05:10.654Z,84.13
2022-10-18T20:07:13.737Z,84.10
2022-10-18T20:09:19.523Z,84.21
2022-10-18T20:11:25.356Z,83.87
2022-10-18T20:13:27.479Z,83.92
2022-10-18T20:15:29.809Z,84.03
2022-10-18T20:17:32.754Z,83.86
2022-10-18T20:19:35.420Z,84.08
2022-10-18T20:21:37.951Z,83.87
2022-10-18T20:23:42.330Z,84.12
2022-10-18T20:25:56.017Z,84.39
2022-10-18T20:27:57.958Z,84.28
2022-10-18T20:29:59.897Z,84.27
2022-10-18T20:32:01.979Z,84.18
2022-10-18T20:34:06.847Z,84.23
2022-10-18T20:36:10.286Z,84.30
2022-10-18T20:38:12.833Z,84.28
2022-10-18T20:40:16.335Z,84.35
2022-10-18T20:42:18.304Z,84.25
2022-10-18T20:44:22.632Z,84.76
2022-10-18T20:46:25.337Z,84.43
2022-10-18T20:48:28.671Z,84.67
2022-10-18T20:50:30.537Z,84.76
2022-10-18T20:52:32.408Z,84.55
2022-10-18T20:54:37.384Z,84.60
2022-10-18T20:56:39.580Z,84.72
2022-10-18T20:58:43.807Z,84.44
2022-10-18T21:00:45.718Z,84.96
2022-10-18T21:02:47.651Z,84.67
2022-10-18T21:04:49.632Z,84.64
2022-10-18T21:06:54.373Z,85.02
2022-10-18T21:09:06.847Z,84.65
2022-10-18T21:11:09.686Z,84.65
2022-10-18T21:13:12.616Z,84.42
2022-10-18T21:15:15.091Z,84.73
2022-10-18T21:17:19.547Z,84.74
2022-10-18T21:19:24.346Z,84.74
2022-10-18T21:21:27.408Z,84.80
2022-10-18T21:23:31.423Z,84.84
2022-10-18T21:25:33.333Z,84.89
2022-10-18T21:27:35.410Z,85.01
2022-10-18T21:29:37.312Z,84.51
2022-10-18T21:31:41.656Z,84.45
2022-10-18T21:33:45.077Z,84.57
2022-10-18T21:35:46.958Z,84.68
2022-10-18T21:37:49.986Z,84.41
2022-10-18T21:39:52.026Z,84.42
2022-10-18T21:41:53.952Z,84.33
2022-10-18T21:43:55.857Z,84.38
2022-10-18T21:45:59.872Z,84.02
2022-10-18T21:48:03.643Z,84.15
2022-10-18T21:50:05.844Z,84.29
2022-10-18T21:52:07.717Z,84.33
2022-10-18T21:54:14.177Z,84.28
2022-10-18T21:56:19.386Z,84.31
2022-10-18T21:58:21.299Z,84.53
2022-10-18T22:00:23.234Z,84.68
2022-10-18T22:02:25.344Z,84.41
2022-10-18T22:04:28.570Z,84.25
2022-10-18T22:08:38.224Z,84.19
2022-10-18T22:10:40.867Z,83.67
2022-10-18T22:12:42.782Z,83.98
2022-10-18T22:14:44.814Z,83.93
2022-10-18T22:16:49.206Z,83.67
2022-10-18T22:18:56.975Z,83.68
2022-10-18T22:21:07.702Z,83.65
2022-10-18T22:23:12.678Z,83.38
2022-10-18T22:25:14.569Z,83.43
2022-10-18T22:27:16.369Z,83.95
2022-10-18T22:29:20.641Z,83.53
2022-10-18T22:31:25.237Z,83.62
2022-10-18T22:33:28.310Z,83.38
2022-10-18T22:35:31.968Z,83.28
2022-10-18T22:37:33.980Z,82.83
2022-10-18T22:39:36.136Z,83.23
2022-10-18T22:41:37.986Z,83.05
2022-10-18T22:43:40.913Z,83.32
2022-10-18T22:45:42.748Z,82.69
2022-10-18T22:47:44.679Z,82.86
2022-10-18T22:49:46.505Z,82.84
2022-10-18T22:51:48.466Z,82.98
2022-10-18T22:53:50.482Z,82.85
2022-10-18T22:55:52.855Z,83.03
2022-10-18T22:57:56.014Z,82.88
2022-10-18T22:59:57.810Z,82.71
2022-10-18T23:02:00.789Z,82.45
2022-10-18T23:04:04.170Z,82.37
2022-10-18T23:06:19.252Z,82.50
2022-10-18T23:08:21.094Z,82.42
2022-10-18T23:10:22.984Z,82.31
2022-10-18T23:12:24.864Z,82.27
2022-10-18T23:14:26.809Z,82.52
2022-10-18T23:16:29.704Z,82.61
2022-10-18T23:18:33.249Z,82.58
2022-10-18T23:20:35.198Z,82.47
2022-10-18T23:22:37.154Z,82.44
2022-10-18T23:24:39.996Z,82.62
2022-10-18T23:26:41.821Z,82.38
2022-10-18T23:28:45.591Z,82.19
2022-10-18T23:30:47.569Z,82.05
2022-10-18T23:32:49.521Z,82.32
2022-10-18T23:34:52.404Z,82.38
2022-10-18T23:36:54.303Z,82.30
2022-10-18T23:38:56.224Z,82.04
2022-10-18T23:40:58.303Z,82.04
2022-10-18T23:43:00.134Z,82.00
2022-10-18T23:45:03.609Z,82.12
2022-10-18T23:47:05.527Z,82.48
2022-10-18T23:49:09.318Z,82.29
2022-10-18T23:51:11.748Z,82.01
2022-10-18T23:53:13.840Z,82.01
2022-10-18T23:55:15.771Z,82.22
2022-10-18T23:57:17.633Z,82.26
2022-10-18T23:59:19.467Z,82.45
